sensor_id;sensor_type;location;lat;lon;timestamp;P1;durP1;ratioP1;P2;durP2;ratioP2
56307;SDS011;42217;50.422;7.210;2022-12-18T00:02:01;9.70;;;8.40;;
56307;SDS011;42217;50.422;7.210;2022-12-18T00:04:27;9.63;;;7.80;;
56307;SDS011;42217;50.422;7.210;2022-12-18T00:06:53;6.20;;;5.70;;
56307;SDS011;42217;50.422;7.210;2022-12-18T00:09:19;10.70;;;7.23;;
56307;SDS011;42217;50.422;7.210;2022-12-18T00:11:45;13.17;;;6.83;;
56307;SDS011;42217;50.422;7.210;2022-12-18T00:14:11;9.73;;;8.97;;
56307;SDS011;42217;50.422;7.210;2022-12-18T00:16:38;7.37;;;6.67;;
56307;SDS011;42217;50.422;7.210;2022-12-18T00:19:05;9.73;;;8.53;;
56307;SDS011;42217;50.422;7.210;2022-12-18T00:21:32;16.37;;;7.93;;
56307;SDS011;42217;50.422;7.210;2022-12-18T00:23:59;8.23;;;7.30;;
56307;SDS011;42217;50.422;7.210;2022-12-18T00:26:26;5.93;;;5.50;;
56307;SDS011;42217;50.422;7.210;2022-12-18T00:28:54;7.63;;;6.77;;
56307;SDS011;42217;50.422;7.210;2022-12-18T00:31:23;6.50;;;6.20;;
56307;SDS011;42217;50.422;7.210;2022-12-18T00:33:49;8.40;;;7.83;;
56307;SDS011;42217;50.422;7.210;2022-12-18T00:36:17;6.00;;;5.70;;
56307;SDS011;42217;50.422;7.210;2022-12-18T00:38:45;12.30;;;6.10;;
56307;SDS011;42217;50.422;7.210;2022-12-18T00:41:12;4.73;;;4.33;;
56307;SDS011;42217;50.422;7.210;2022-12-18T00:43:59;5.83;;;4.90;;
56307;SDS011;42217;50.422;7.210;2022-12-18T00:46:25;6.73;;;6.23;;
56307;SDS011;42217;50.422;7.210;2022-12-18T00:48:51;4.77;;;4.50;;
56307;SDS011;42217;50.422;7.210;2022-12-18T00:51:16;5.93;;;5.53;;
56307;SDS011;42217;50.422;7.210;2022-12-18T00:53:42;6.70;;;5.57;;
56307;SDS011;42217;50.422;7.210;2022-12-18T00:56:08;8.30;;;7.17;;
56307;SDS011;42217;50.422;7.210;2022-12-18T00:58:33;7.23;;;6.57;;
56307;SDS011;42217;50.422;7.210;2022-12-18T01:00:59;8.33;;;7.60;;
56307;SDS011;42217;50.422;7.210;2022-12-18T01:03:24;9.40;;;8.77;;
56307;SDS011;42217;50.422;7.210;2022-12-18T01:05:50;6.07;;;5.67;;
56307;SDS011;42217;50.422;7.210;2022-12-18T01:08:16;13.50;;;10.33;;
56307;SDS011;42217;50.422;7.210;2022-12-18T01:10:41;13.33;;;8.97;;
56307;SDS011;42217;50.422;7.210;2022-12-18T01:13:07;12.10;;;9.73;;
56307;SDS011;42217;50.422;7.210;2022-12-18T01:15:33;20.53;;;12.50;;
56307;SDS011;42217;50.422;7.210;2022-12-18T01:17:58;6.53;;;6.13;;
56307;SDS011;42217;50.422;7.210;2022-12-18T01:20:24;6.83;;;5.50;;
56307;SDS011;42217;50.422;7.210;2022-12-18T01:22:50;6.57;;;6.17;;
56307;SDS011;42217;50.422;7.210;2022-12-18T01:25:15;8.93;;;6.50;;
56307;SDS011;42217;50.422;7.210;2022-12-18T01:27:41;11.80;;;7.53;;
56307;SDS011;42217;50.422;7.210;2022-12-18T01:30:07;7.03;;;6.33;;
56307;SDS011;42217;50.422;7.210;2022-12-18T01:32:33;21.27;;;6.67;;
56307;SDS011;42217;50.422;7.210;2022-12-18T01:34:59;9.57;;;6.40;;
56307;SDS011;42217;50.422;7.210;2022-12-18T01:37:24;6.50;;;6.00;;
56307;SDS011;42217;50.422;7.210;2022-12-18T01:39:50;7.93;;;6.80;;
56307;SDS011;42217;50.422;7.210;2022-12-18T01:42:19;7.73;;;7.00;;
56307;SDS011;42217;50.422;7.210;2022-12-18T01:45:02;8.47;;;7.10;;
56307;SDS011;42217;50.422;7.210;2022-12-18T01:50:13;5.07;;;4.80;;
56307;SDS011;42217;50.422;7.210;2022-12-18T01:52:43;7.77;;;7.17;;
56307;SDS011;42217;50.422;7.210;2022-12-18T01:55:14;7.67;;;5.30;;
56307;SDS011;42217;50.422;7.210;2022-12-18T01:57:43;7.13;;;6.50;;
56307;SDS011;42217;50.422;7.210;2022-12-18T02:00:10;7.03;;;6.57;;
56307;SDS011;42217;50.422;7.210;2022-12-18T02:02:38;11.10;;;9.07;;
56307;SDS011;42217;50.422;7.210;2022-12-18T02:05:06;8.07;;;7.40;;
56307;SDS011;42217;50.422;7.210;2022-12-18T02:07:37;13.37;;;5.93;;
56307;SDS011;42217;50.422;7.210;2022-12-18T02:18:21;5.37;;;5.07;;
56307;SDS011;42217;50.422;7.210;2022-12-18T02:21:08;19.23;;;7.73;;
56307;SDS011;42217;50.422;7.210;2022-12-18T02:23:47;5.50;;;5.20;;
56307;SDS011;42217;50.422;7.210;2022-12-18T02:30:02;6.33;;;5.87;;
56307;SDS011;42217;50.422;7.210;2022-12-18T02:32:05;4.60;;;4.25;;
56307;SDS011;42217;50.422;7.210;2022-12-18T02:34:36;8.60;;;7.50;;
56307;SDS011;42217;50.422;7.210;2022-12-18T02:37:04;5.73;;;5.33;;
56307;SDS011;42217;50.422;7.210;2022-12-18T02:39:34;5.97;;;5.47;;
56307;SDS011;42217;50.422;7.210;2022-12-18T02:42:02;9.57;;;7.40;;
56307;SDS011;42217;50.422;7.210;2022-12-18T02:44:32;6.40;;;5.90;;
56307;SDS011;42217;50.422;7.210;2022-12-18T02:47:09;8.97;;;8.23;;
56307;SDS011;42217;50.422;7.210;2022-12-18T02:52:34;7.27;;;6.77;;
56307;SDS011;42217;50.422;7.210;2022-12-18T02:58:16;5.83;;;5.47;;
56307;SDS011;42217;50.422;7.210;2022-12-18T03:00:53;6.30;;;5.80;;
56307;SDS011;42217;50.422;7.210;2022-12-18T03:06:26;7.03;;;6.63;;
56307;SDS011;42217;50.422;7.210;2022-12-18T03:09:21;6.50;;;5.97;;
56307;SDS011;42217;50.422;7.210;2022-12-18T03:11:54;6.63;;;6.23;;
56307;SDS011;42217;50.422;7.210;2022-12-18T03:14:42;7.07;;;6.67;;
56307;SDS011;42217;50.422;7.210;2022-12-18T03:17:10;9.77;;;7.03;;
56307;SDS011;42217;50.422;7.210;2022-12-18T03:19:41;7.80;;;6.70;;
56307;SDS011;42217;50.422;7.210;2022-12-18T03:22:08;7.23;;;6.57;;
56307;SDS011;42217;50.422;7.210;2022-12-18T03:24:35;4.93;;;4.63;;
56307;SDS011;42217;50.422;7.210;2022-12-18T03:27:05;9.47;;;7.83;;
56307;SDS011;42217;50.422;7.210;2022-12-18T03:29:38;7.47;;;5.27;;
56307;SDS011;42217;50.422;7.210;2022-12-18T03:32:15;9.70;;;6.17;;
56307;SDS011;42217;50.422;7.210;2022-12-18T03:34:51;6.77;;;6.23;;
56307;SDS011;42217;50.422;7.210;2022-12-18T03:37:22;14.13;;;8.03;;
56307;SDS011;42217;50.422;7.210;2022-12-18T03:39:48;6.43;;;5.80;;
56307;SDS011;42217;50.422;7.210;2022-12-18T03:42:20;7.90;;;7.30;;
56307;SDS011;42217;50.422;7.210;2022-12-18T03:47:59;7.67;;;7.17;;
56307;SDS011;42217;50.422;7.210;2022-12-18T03:55:38;10.30;;;7.50;;
56307;SDS011;42217;50.422;7.210;2022-12-18T03:58:05;14.97;;;9.20;;
56307;SDS011;42217;50.422;7.210;2022-12-18T04:00:32;8.67;;;7.93;;
56307;SDS011;42217;50.422;7.210;2022-12-18T04:02:58;7.17;;;6.57;;
56307;SDS011;42217;50.422;7.210;2022-12-18T04:05:25;8.20;;;7.33;;
56307;SDS011;42217;50.422;7.210;2022-12-18T04:07:52;5.87;;;5.43;;
56307;SDS011;42217;50.422;7.210;2022-12-18T04:10:19;11.13;;;8.00;;
56307;SDS011;42217;50.422;7.210;2022-12-18T04:12:45;10.03;;;9.33;;
56307;SDS011;42217;50.422;7.210;2022-12-18T04:15:11;13.03;;;7.17;;
56307;SDS011;42217;50.422;7.210;2022-12-18T04:17:38;13.43;;;8.43;;
56307;SDS011;42217;50.422;7.210;2022-12-18T04:20:07;11.53;;;9.73;;
56307;SDS011;42217;50.422;7.210;2022-12-18T04:22:33;11.37;;;7.33;;
56307;SDS011;42217;50.422;7.210;2022-12-18T04:25:00;10.57;;;9.13;;
56307;SDS011;42217;50.422;7.210;2022-12-18T04:27:26;11.90;;;8.73;;
56307;SDS011;42217;50.422;7.210;2022-12-18T04:29:51;13.87;;;9.67;;
56307;SDS011;42217;50.422;7.210;2022-12-18T04:32:17;8.80;;;8.13;;
56307;SDS011;42217;50.422;7.210;2022-12-18T04:34:43;10.37;;;7.47;;
56307;SDS011;42217;50.422;7.210;2022-12-18T04:37:08;7.97;;;7.13;;
56307;SDS011;42217;50.422;7.210;2022-12-18T04:39:34;8.73;;;7.97;;
56307;SDS011;42217;50.422;7.210;2022-12-18T04:42:00;7.33;;;6.63;;
56307;SDS011;42217;50.422;7.210;2022-12-18T04:44:26;14.20;;;8.07;;
56307;SDS011;42217;50.422;7.210;2022-12-18T04:46:52;9.53;;;8.13;;
56307;SDS011;42217;50.422;7.210;2022-12-18T04:49:17;9.57;;;8.77;;
56307;SDS011;42217;50.422;7.210;2022-12-18T04:51:43;8.93;;;8.10;;
56307;SDS011;42217;50.422;7.210;2022-12-18T04:54:09;7.47;;;6.87;;
56307;SDS011;42217;50.422;7.210;2022-12-18T04:56:34;7.53;;;7.03;;
56307;SDS011;42217;50.422;7.210;2022-12-18T04:59:00;10.37;;;9.30;;
56307;SDS011;42217;50.422;7.210;2022-12-18T05:01:25;11.87;;;9.73;;
56307;SDS011;42217;50.422;7.210;2022-12-18T05:03:51;7.83;;;7.03;;
56307;SDS011;42217;50.422;7.210;2022-12-18T05:06:17;7.93;;;7.20;;
56307;SDS011;42217;50.422;7.210;2022-12-18T05:08:43;8.50;;;7.87;;
56307;SDS011;42217;50.422;7.210;2022-12-18T05:11:09;11.43;;;9.27;;
56307;SDS011;42217;50.422;7.210;2022-12-18T05:13:37;11.00;;;8.27;;
56307;SDS011;42217;50.422;7.210;2022-12-18T05:16:03;8.20;;;7.07;;
56307;SDS011;42217;50.422;7.210;2022-12-18T05:18:30;7.57;;;6.43;;
56307;SDS011;42217;50.422;7.210;2022-12-18T05:20:56;15.57;;;8.87;;
56307;SDS011;42217;50.422;7.210;2022-12-18T05:23:22;10.87;;;9.00;;
56307;SDS011;42217;50.422;7.210;2022-12-18T05:25:59;10.70;;;8.33;;
56307;SDS011;42217;50.422;7.210;2022-12-18T05:28:26;11.67;;;8.67;;
56307;SDS011;42217;50.422;7.210;2022-12-18T05:30:54;8.80;;;7.20;;
56307;SDS011;42217;50.422;7.210;2022-12-18T05:33:22;13.83;;;9.10;;
56307;SDS011;42217;50.422;7.210;2022-12-18T05:35:50;8.93;;;8.13;;
56307;SDS011;42217;50.422;7.210;2022-12-18T05:38:17;14.13;;;9.80;;
56307;SDS011;42217;50.422;7.210;2022-12-18T05:40:43;10.80;;;9.70;;
56307;SDS011;42217;50.422;7.210;2022-12-18T05:43:09;7.70;;;6.77;;
56307;SDS011;42217;50.422;7.210;2022-12-18T05:45:39;11.73;;;10.57;;
56307;SDS011;42217;50.422;7.210;2022-12-18T05:48:05;11.23;;;8.20;;
56307;SDS011;42217;50.422;7.210;2022-12-18T05:50:35;8.60;;;7.77;;
56307;SDS011;42217;50.422;7.210;2022-12-18T05:53:05;9.60;;;8.70;;
56307;SDS011;42217;50.422;7.210;2022-12-18T05:55:34;8.80;;;8.00;;
56307;SDS011;42217;50.422;7.210;2022-12-18T05:58:01;12.63;;;10.43;;
56307;SDS011;42217;50.422;7.210;2022-12-18T06:00:28;9.97;;;8.80;;
56307;SDS011;42217;50.422;7.210;2022-12-18T06:02:54;19.57;;;10.00;;
56307;SDS011;42217;50.422;7.210;2022-12-18T06:05:20;8.93;;;8.13;;
56307;SDS011;42217;50.422;7.210;2022-12-18T06:07:46;7.50;;;6.87;;
56307;SDS011;42217;50.422;7.210;2022-12-18T06:10:12;14.37;;;9.63;;
56307;SDS011;42217;50.422;7.210;2022-12-18T06:12:37;9.63;;;7.50;;
56307;SDS011;42217;50.422;7.210;2022-12-18T06:15:03;12.63;;;11.33;;
56307;SDS011;42217;50.422;7.210;2022-12-18T06:17:29;10.20;;;9.10;;
56307;SDS011;42217;50.422;7.210;2022-12-18T06:19:56;11.87;;;10.67;;
56307;SDS011;42217;50.422;7.210;2022-12-18T06:22:22;11.93;;;10.10;;
56307;SDS011;42217;50.422;7.210;2022-12-18T06:24:48;10.17;;;9.13;;
56307;SDS011;42217;50.422;7.210;2022-12-18T06:27:13;11.63;;;9.70;;
56307;SDS011;42217;50.422;7.210;2022-12-18T06:29:39;16.40;;;8.77;;
56307;SDS011;42217;50.422;7.210;2022-12-18T06:32:05;13.20;;;11.97;;
56307;SDS011;42217;50.422;7.210;2022-12-18T06:34:31;19.37;;;11.43;;
56307;SDS011;42217;50.422;7.210;2022-12-18T06:36:57;12.70;;;9.07;;
56307;SDS011;42217;50.422;7.210;2022-12-18T06:39:23;8.00;;;7.20;;
56307;SDS011;42217;50.422;7.210;2022-12-18T06:41:49;15.77;;;12.70;;
56307;SDS011;42217;50.422;7.210;2022-12-18T06:44:15;20.73;;;10.67;;
56307;SDS011;42217;50.422;7.210;2022-12-18T06:46:41;11.33;;;9.63;;
56307;SDS011;42217;50.422;7.210;2022-12-18T06:49:06;14.40;;;11.77;;
56307;SDS011;42217;50.422;7.210;2022-12-18T06:51:34;12.03;;;10.87;;
56307;SDS011;42217;50.422;7.210;2022-12-18T06:54:00;10.17;;;9.00;;
56307;SDS011;42217;50.422;7.210;2022-12-18T06:56:26;15.77;;;11.87;;
56307;SDS011;42217;50.422;7.210;2022-12-18T06:58:51;18.27;;;12.40;;
56307;SDS011;42217;50.422;7.210;2022-12-18T07:01:17;18.37;;;13.33;;
56307;SDS011;42217;50.422;7.210;2022-12-18T07:03:43;11.50;;;8.90;;
56307;SDS011;42217;50.422;7.210;2022-12-18T07:06:14;16.10;;;11.50;;
56307;SDS011;42217;50.422;7.210;2022-12-18T07:08:41;14.60;;;12.17;;
56307;SDS011;42217;50.422;7.210;2022-12-18T07:11:07;15.67;;;11.13;;
56307;SDS011;42217;50.422;7.210;2022-12-18T07:13:33;13.63;;;11.10;;
56307;SDS011;42217;50.422;7.210;2022-12-18T07:16:08;20.93;;;10.27;;
56307;SDS011;42217;50.422;7.210;2022-12-18T07:18:44;16.47;;;11.07;;
56307;SDS011;42217;50.422;7.210;2022-12-18T07:21:11;16.97;;;12.63;;
56307;SDS011;42217;50.422;7.210;2022-12-18T07:23:39;16.83;;;11.73;;
56307;SDS011;42217;50.422;7.210;2022-12-18T07:26:05;11.80;;;10.47;;
56307;SDS011;42217;50.422;7.210;2022-12-18T07:28:34;10.03;;;8.77;;
56307;SDS011;42217;50.422;7.210;2022-12-18T07:31:07;19.67;;;11.37;;
56307;SDS011;42217;50.422;7.210;2022-12-18T07:33:35;17.50;;;10.67;;
56307;SDS011;42217;50.422;7.210;2022-12-18T07:36:01;13.33;;;7.23;;
56307;SDS011;42217;50.422;7.210;2022-12-18T07:38:28;15.50;;;10.17;;
56307;SDS011;42217;50.422;7.210;2022-12-18T07:40:59;20.33;;;12.53;;
56307;SDS011;42217;50.422;7.210;2022-12-18T07:43:45;16.30;;;12.00;;
56307;SDS011;42217;50.422;7.210;2022-12-18T07:46:11;14.63;;;11.03;;
56307;SDS011;42217;50.422;7.210;2022-12-18T07:48:41;14.43;;;11.23;;
56307;SDS011;42217;50.422;7.210;2022-12-18T07:51:07;15.73;;;10.43;;
56307;SDS011;42217;50.422;7.210;2022-12-18T07:53:39;9.50;;;8.75;;
56307;SDS011;42217;50.422;7.210;2022-12-18T07:56:09;16.73;;;8.50;;
56307;SDS011;42217;50.422;7.210;2022-12-18T07:58:36;14.23;;;10.47;;
56307;SDS011;42217;50.422;7.210;2022-12-18T08:01:10;11.37;;;9.70;;
56307;SDS011;42217;50.422;7.210;2022-12-18T08:03:37;13.70;;;10.53;;
56307;SDS011;42217;50.422;7.210;2022-12-18T08:06:05;24.87;;;11.73;;
56307;SDS011;42217;50.422;7.210;2022-12-18T08:08:32;15.93;;;10.73;;
56307;SDS011;42217;50.422;7.210;2022-12-18T08:10:59;11.73;;;9.20;;
56307;SDS011;42217;50.422;7.210;2022-12-18T08:13:25;10.07;;;8.50;;
56307;SDS011;42217;50.422;7.210;2022-12-18T08:16:04;26.73;;;12.70;;
56307;SDS011;42217;50.422;7.210;2022-12-18T08:18:32;24.23;;;11.87;;
56307;SDS011;42217;50.422;7.210;2022-12-18T08:21:02;15.80;;;11.93;;
56307;SDS011;42217;50.422;7.210;2022-12-18T08:23:36;12.93;;;10.03;;
56307;SDS011;42217;50.422;7.210;2022-12-18T08:26:02;18.77;;;13.23;;
56307;SDS011;42217;50.422;7.210;2022-12-18T08:28:28;20.23;;;14.70;;
56307;SDS011;42217;50.422;7.210;2022-12-18T08:30:54;17.77;;;13.30;;
56307;SDS011;42217;50.422;7.210;2022-12-18T08:33:20;16.67;;;13.47;;
56307;SDS011;42217;50.422;7.210;2022-12-18T08:35:45;15.80;;;11.40;;
56307;SDS011;42217;50.422;7.210;2022-12-18T08:38:11;17.37;;;12.37;;
56307;SDS011;42217;50.422;7.210;2022-12-18T08:40:37;16.37;;;10.43;;
56307;SDS011;42217;50.422;7.210;2022-12-18T08:43:02;13.93;;;11.07;;
56307;SDS011;42217;50.422;7.210;2022-12-18T08:45:46;13.63;;;10.60;;
56307;SDS011;42217;50.422;7.210;2022-12-18T08:48:12;10.20;;;9.17;;
56307;SDS011;42217;50.422;7.210;2022-12-18T08:50:38;13.33;;;12.03;;
56307;SDS011;42217;50.422;7.210;2022-12-18T08:53:03;17.77;;;10.93;;
56307;SDS011;42217;50.422;7.210;2022-12-18T08:55:29;24.20;;;14.00;;
56307;SDS011;42217;50.422;7.210;2022-12-18T08:57:55;11.10;;;9.93;;
56307;SDS011;42217;50.422;7.210;2022-12-18T09:00:20;21.47;;;16.20;;
56307;SDS011;42217;50.422;7.210;2022-12-18T09:02:46;17.77;;;12.47;;
56307;SDS011;42217;50.422;7.210;2022-12-18T09:05:12;16.23;;;13.70;;
56307;SDS011;42217;50.422;7.210;2022-12-18T09:07:38;20.93;;;15.13;;
56307;SDS011;42217;50.422;7.210;2022-12-18T09:10:04;22.83;;;13.13;;
56307;SDS011;42217;50.422;7.210;2022-12-18T09:12:30;13.63;;;10.90;;
56307;SDS011;42217;50.422;7.210;2022-12-18T09:14:56;19.17;;;13.07;;
56307;SDS011;42217;50.422;7.210;2022-12-18T09:17:22;17.63;;;11.00;;
56307;SDS011;42217;50.422;7.210;2022-12-18T09:19:48;14.70;;;12.30;;
56307;SDS011;42217;50.422;7.210;2022-12-18T09:22:14;16.10;;;10.93;;
56307;SDS011;42217;50.422;7.210;2022-12-18T09:24:40;12.20;;;10.93;;
56307;SDS011;42217;50.422;7.210;2022-12-18T09:27:05;23.17;;;14.30;;
56307;SDS011;42217;50.422;7.210;2022-12-18T09:29:32;20.23;;;14.60;;
56307;SDS011;42217;50.422;7.210;2022-12-18T09:31:57;16.93;;;13.90;;
56307;SDS011;42217;50.422;7.210;2022-12-18T09:34:23;22.37;;;12.73;;
56307;SDS011;42217;50.422;7.210;2022-12-18T09:36:49;14.40;;;10.63;;
56307;SDS011;42217;50.422;7.210;2022-12-18T09:39:15;13.83;;;11.10;;
56307;SDS011;42217;50.422;7.210;2022-12-18T09:41:45;16.73;;;11.53;;
56307;SDS011;42217;50.422;7.210;2022-12-18T09:44:23;15.63;;;12.53;;
56307;SDS011;42217;50.422;7.210;2022-12-18T09:47:16;20.70;;;14.10;;
56307;SDS011;42217;50.422;7.210;2022-12-18T09:49:46;20.27;;;13.87;;
56307;SDS011;42217;50.422;7.210;2022-12-18T09:54:50;20.67;;;12.23;;
56307;SDS011;42217;50.422;7.210;2022-12-18T09:57:24;23.23;;;14.57;;
56307;SDS011;42217;50.422;7.210;2022-12-18T09:59:59;17.80;;;12.20;;
56307;SDS011;42217;50.422;7.210;2022-12-18T10:02:47;15.33;;;12.30;;
56307;SDS011;42217;50.422;7.210;2022-12-18T10:05:17;25.30;;;13.47;;
56307;SDS011;42217;50.422;7.210;2022-12-18T10:10:27;24.10;;;14.37;;
56307;SDS011;42217;50.422;7.210;2022-12-18T10:15:45;28.63;;;16.37;;
56307;SDS011;42217;50.422;7.210;2022-12-18T10:21:13;21.50;;;14.60;;
56307;SDS011;42217;50.422;7.210;2022-12-18T10:26:24;22.20;;;14.00;;
56307;SDS011;42217;50.422;7.210;2022-12-18T10:28:51;23.70;;;12.40;;
56307;SDS011;42217;50.422;7.210;2022-12-18T10:31:20;20.43;;;14.33;;
56307;SDS011;42217;50.422;7.210;2022-12-18T10:33:47;21.33;;;12.40;;
56307;SDS011;42217;50.422;7.210;2022-12-18T10:36:13;23.87;;;12.40;;
56307;SDS011;42217;50.422;7.210;2022-12-18T10:38:38;19.40;;;11.50;;
56307;SDS011;42217;50.422;7.210;2022-12-18T10:41:06;19.07;;;12.43;;
56307;SDS011;42217;50.422;7.210;2022-12-18T10:46:36;19.97;;;12.47;;
56307;SDS011;42217;50.422;7.210;2022-12-18T10:49:02;19.50;;;14.40;;
56307;SDS011;42217;50.422;7.210;2022-12-18T10:51:30;25.77;;;13.00;;
56307;SDS011;42217;50.422;7.210;2022-12-18T10:54:13;24.37;;;13.10;;
56307;SDS011;42217;50.422;7.210;2022-12-18T10:56:39;24.57;;;14.67;;
56307;SDS011;42217;50.422;7.210;2022-12-18T10:59:07;16.70;;;12.33;;
56307;SDS011;42217;50.422;7.210;2022-12-18T11:04:15;25.80;;;16.10;;
56307;SDS011;42217;50.422;7.210;2022-12-18T11:06:54;18.53;;;12.13;;
56307;SDS011;42217;50.422;7.210;2022-12-18T11:09:26;21.43;;;14.37;;
56307;SDS011;42217;50.422;7.210;2022-12-18T11:11:55;24.27;;;14.90;;
56307;SDS011;42217;50.422;7.210;2022-12-18T11:14:23;22.60;;;13.23;;
56307;SDS011;42217;50.422;7.210;2022-12-18T11:17:16;19.53;;;13.17;;
56307;SDS011;42217;50.422;7.210;2022-12-18T11:20:05;26.37;;;13.63;;
56307;SDS011;42217;50.422;7.210;2022-12-18T11:25:19;19.73;;;14.13;;
56307;SDS011;42217;50.422;7.210;2022-12-18T11:27:49;18.00;;;13.03;;
56307;SDS011;42217;50.422;7.210;2022-12-18T11:30:26;26.92;;;14.48;;
56307;SDS011;42217;50.422;7.210;2022-12-18T11:33:06;23.53;;;13.70;;
56307;SDS011;42217;50.422;7.210;2022-12-18T11:35:42;22.33;;;12.93;;
56307;SDS011;42217;50.422;7.210;2022-12-18T11:38:28;24.57;;;12.43;;
56307;SDS011;42217;50.422;7.210;2022-12-18T11:44:02;33.40;;;14.20;;
56307;SDS011;42217;50.422;7.210;2022-12-18T11:46:36;22.63;;;13.43;;
56307;SDS011;42217;50.422;7.210;2022-12-18T11:49:12;30.67;;;18.10;;
56307;SDS011;42217;50.422;7.210;2022-12-18T11:54:29;21.70;;;15.40;;
56307;SDS011;42217;50.422;7.210;2022-12-18T12:02:23;25.17;;;15.87;;
56307;SDS011;42217;50.422;7.210;2022-12-18T12:08:03;20.53;;;14.20;;
56307;SDS011;42217;50.422;7.210;2022-12-18T12:10:42;24.03;;;13.63;;
56307;SDS011;42217;50.422;7.210;2022-12-18T12:16:11;21.63;;;14.13;;
56307;SDS011;42217;50.422;7.210;2022-12-18T12:21:44;25.53;;;12.57;;
56307;SDS011;42217;50.422;7.210;2022-12-18T12:24:52;17.07;;;12.57;;
56307;SDS011;42217;50.422;7.210;2022-12-18T12:35:06;23.77;;;15.00;;
56307;SDS011;42217;50.422;7.210;2022-12-18T12:40:26;20.13;;;14.10;;
56307;SDS011;42217;50.422;7.210;2022-12-18T12:45:42;20.83;;;14.20;;
56307;SDS011;42217;50.422;7.210;2022-12-18T12:51:16;24.33;;;13.83;;
56307;SDS011;42217;50.422;7.210;2022-12-18T12:53:45;27.10;;;14.70;;
56307;SDS011;42217;50.422;7.210;2022-12-18T12:56:14;23.93;;;14.03;;
56307;SDS011;42217;50.422;7.210;2022-12-18T13:01:25;15.73;;;13.03;;
56307;SDS011;42217;50.422;7.210;2022-12-18T13:12:58;24.00;;;15.33;;
56307;SDS011;42217;50.422;7.210;2022-12-18T13:18:13;21.45;;;12.85;;
56307;SDS011;42217;50.422;7.210;2022-12-18T13:20:46;17.27;;;12.10;;
56307;SDS011;42217;50.422;7.210;2022-12-18T13:23:28;22.23;;;14.80;;
56307;SDS011;42217;50.422;7.210;2022-12-18T13:25:57;23.20;;;13.43;;
56307;SDS011;42217;50.422;7.210;2022-12-18T13:31:13;18.10;;;13.43;;
56307;SDS011;42217;50.422;7.210;2022-12-18T13:36:48;30.07;;;15.67;;
56307;SDS011;42217;50.422;7.210;2022-12-18T13:41:43;26.73;;;16.10;;
56307;SDS011;42217;50.422;7.210;2022-12-18T13:46:59;25.80;;;14.63;;
56307;SDS011;42217;50.422;7.210;2022-12-18T13:49:37;22.03;;;12.97;;
56307;SDS011;42217;50.422;7.210;2022-12-18T13:54:53;24.90;;;15.30;;
56307;SDS011;42217;50.422;7.210;2022-12-18T13:57:28;29.07;;;14.90;;
56307;SDS011;42217;50.422;7.210;2022-12-18T13:59:57;18.53;;;14.27;;
56307;SDS011;42217;50.422;7.210;2022-12-18T14:02:37;27.70;;;17.90;;
56307;SDS011;42217;50.422;7.210;2022-12-18T14:05:03;36.10;;;17.23;;
56307;SDS011;42217;50.422;7.210;2022-12-18T14:07:29;21.87;;;15.13;;
56307;SDS011;42217;50.422;7.210;2022-12-18T14:09:57;21.63;;;15.23;;
56307;SDS011;42217;50.422;7.210;2022-12-18T14:12:25;35.87;;;19.20;;
56307;SDS011;42217;50.422;7.210;2022-12-18T14:15:47;23.73;;;17.33;;
56307;SDS011;42217;50.422;7.210;2022-12-18T14:20:58;28.57;;;16.73;;
56307;SDS011;42217;50.422;7.210;2022-12-18T14:23:31;25.97;;;15.03;;
56307;SDS011;42217;50.422;7.210;2022-12-18T14:28:57;23.30;;;15.63;;
56307;SDS011;42217;50.422;7.210;2022-12-18T14:31:43;23.83;;;14.47;;
56307;SDS011;42217;50.422;7.210;2022-12-18T14:34:14;31.10;;;19.17;;
56307;SDS011;42217;50.422;7.210;2022-12-18T14:36:41;24.27;;;16.45;;
56307;SDS011;42217;50.422;7.210;2022-12-18T14:39:18;27.47;;;18.87;;
56307;SDS011;42217;50.422;7.210;2022-12-18T14:41:43;21.60;;;13.80;;
56307;SDS011;42217;50.422;7.210;2022-12-18T14:44:10;26.43;;;18.13;;
56307;SDS011;42217;50.422;7.210;2022-12-18T14:46:38;24.40;;;15.97;;
56307;SDS011;42217;50.422;7.210;2022-12-18T14:51:48;19.27;;;17.17;;
56307;SDS011;42217;50.422;7.210;2022-12-18T14:54:22;25.43;;;18.63;;
56307;SDS011;42217;50.422;7.210;2022-12-18T14:57:35;48.00;;;17.83;;
56307;SDS011;42217;50.422;7.210;2022-12-18T14:59:48;23.90;;;15.13;;
56307;SDS011;42217;50.422;7.210;2022-12-18T15:04:46;32.33;;;17.70;;
56307;SDS011;42217;50.422;7.210;2022-12-18T15:12:36;29.80;;;20.03;;
56307;SDS011;42217;50.422;7.210;2022-12-18T15:18:03;33.00;;;18.00;;
56307;SDS011;42217;50.422;7.210;2022-12-18T15:23:17;25.20;;;16.43;;
56307;SDS011;42217;50.422;7.210;2022-12-18T15:25:46;29.37;;;17.47;;
56307;SDS011;42217;50.422;7.210;2022-12-18T15:28:19;33.00;;;18.10;;
56307;SDS011;42217;50.422;7.210;2022-12-18T15:31:05;20.77;;;14.87;;
56307;SDS011;42217;50.422;7.210;2022-12-18T15:34:19;26.37;;;14.53;;
56307;SDS011;42217;50.422;7.210;2022-12-18T15:36:20;25.07;;;17.03;;
56307;SDS011;42217;50.422;7.210;2022-12-18T15:38:51;23.07;;;18.07;;
56307;SDS011;42217;50.422;7.210;2022-12-18T15:41:19;27.17;;;16.20;;
56307;SDS011;42217;50.422;7.210;2022-12-18T15:43:47;34.27;;;15.17;;
56307;SDS011;42217;50.422;7.210;2022-12-18T15:46:15;26.50;;;14.17;;
56307;SDS011;42217;50.422;7.210;2022-12-18T15:48:44;31.17;;;17.70;;
56307;SDS011;42217;50.422;7.210;2022-12-18T15:51:31;25.50;;;17.43;;
56307;SDS011;42217;50.422;7.210;2022-12-18T15:53:59;28.03;;;17.73;;
56307;SDS011;42217;50.422;7.210;2022-12-18T15:56:28;42.33;;;16.80;;
56307;SDS011;42217;50.422;7.210;2022-12-18T15:59:14;25.17;;;15.97;;
56307;SDS011;42217;50.422;7.210;2022-12-18T16:01:42;31.27;;;15.47;;
56307;SDS011;42217;50.422;7.210;2022-12-18T16:04:13;21.90;;;17.80;;
56307;SDS011;42217;50.422;7.210;2022-12-18T16:06:41;32.73;;;18.50;;
56307;SDS011;42217;50.422;7.210;2022-12-18T16:09:07;27.43;;;15.07;;
56307;SDS011;42217;50.422;7.210;2022-12-18T16:11:33;23.43;;;14.83;;
56307;SDS011;42217;50.422;7.210;2022-12-18T16:16:49;28.80;;;18.45;;
56307;SDS011;42217;50.422;7.210;2022-12-18T16:19:16;34.90;;;17.73;;
56307;SDS011;42217;50.422;7.210;2022-12-18T16:21:42;30.33;;;15.67;;
56307;SDS011;42217;50.422;7.210;2022-12-18T16:24:11;32.27;;;18.00;;
56307;SDS011;42217;50.422;7.210;2022-12-18T16:26:42;24.63;;;15.20;;
56307;SDS011;42217;50.422;7.210;2022-12-18T16:29:08;24.13;;;15.87;;
56307;SDS011;42217;50.422;7.210;2022-12-18T16:31:34;25.63;;;13.80;;
56307;SDS011;42217;50.422;7.210;2022-12-18T16:34:13;25.67;;;17.60;;
56307;SDS011;42217;50.422;7.210;2022-12-18T16:36:46;29.77;;;16.10;;
56307;SDS011;42217;50.422;7.210;2022-12-18T16:39:12;23.27;;;20.80;;
56307;SDS011;42217;50.422;7.210;2022-12-18T16:41:37;32.00;;;19.27;;
56307;SDS011;42217;50.422;7.210;2022-12-18T16:44:03;30.10;;;18.93;;
56307;SDS011;42217;50.422;7.210;2022-12-18T16:46:29;32.27;;;16.43;;
56307;SDS011;42217;50.422;7.210;2022-12-18T16:48:56;30.07;;;18.37;;
56307;SDS011;42217;50.422;7.210;2022-12-18T16:51:23;26.10;;;18.87;;
56307;SDS011;42217;50.422;7.210;2022-12-18T16:53:49;24.30;;;19.23;;
56307;SDS011;42217;50.422;7.210;2022-12-18T16:56:15;24.17;;;14.53;;
56307;SDS011;42217;50.422;7.210;2022-12-18T16:58:42;32.13;;;20.00;;
56307;SDS011;42217;50.422;7.210;2022-12-18T17:01:11;32.10;;;16.90;;
56307;SDS011;42217;50.422;7.210;2022-12-18T17:03:37;16.17;;;13.07;;
56307;SDS011;42217;50.422;7.210;2022-12-18T17:06:03;27.93;;;19.50;;
56307;SDS011;42217;50.422;7.210;2022-12-18T17:08:30;24.23;;;16.80;;